createdAt,value
2023-01-13T00:01:25.268Z,100.00
2023-01-13T00:03:52.636Z,100.00
2023-01-13T00:06:29.467Z,100.00
2023-01-13T00:08:56.636Z,100.00
2023-01-13T00:11:24.438Z,100.00
2023-01-13T00:13:51.131Z,100.00
2023-01-13T00:16:18.877Z,100.00
2023-01-13T00:18:46.515Z,100.00
2023-01-13T00:21:16.119Z,100.00
2023-01-13T00:23:44.171Z,100.00
2023-01-13T00:26:12.187Z,100.00
2023-01-13T00:28:39.144Z,100.00
2023-01-13T00:31:06.863Z,100.00
2023-01-13T00:33:33.645Z,100.00
2023-01-13T00:36:02.036Z,100.00
2023-01-13T00:38:31.215Z,100.00
2023-01-13T00:41:11.164Z,100.00
2023-01-13T00:43:38.153Z,100.00
2023-01-13T00:46:09.973Z,100.00
2023-01-13T00:48:37.922Z,100.00
2023-01-13T00:51:08.044Z,100.00
2023-01-13T00:53:37.534Z,100.00
2023-01-13T00:56:11.314Z,100.00
2023-01-13T00:58:38.072Z,100.00
2023-01-13T01:01:08.235Z,99.34
2023-01-13T01:03:35.753Z,99.74
2023-01-13T01:06:07.141Z,97.39
2023-01-13T01:08:37.004Z,97.89
2023-01-13T01:11:10.922Z,96.60
2023-01-13T01:13:38.444Z,95.13
2023-01-13T01:16:07.424Z,94.82
2023-01-13T01:18:36.010Z,94.43
2023-01-13T01:21:03.791Z,93.37
2023-01-13T01:23:31.558Z,94.25
2023-01-13T01:26:07.672Z,94.18
2023-01-13T01:28:35.267Z,94.86
2023-01-13T01:31:07.755Z,94.60
2023-01-13T01:33:34.739Z,94.63
2023-01-13T01:36:02.413Z,94.22
2023-01-13T01:38:29.559Z,94.78
2023-01-13T01:40:56.474Z,95.76
2023-01-13T01:43:42.729Z,96.20
2023-01-13T01:46:09.564Z,96.07
2023-01-13T01:48:42.688Z,96.84
2023-01-13T01:51:13.619Z,97.32
2023-01-13T01:53:41.846Z,98.00
2023-01-13T01:56:10.728Z,97.53
2023-01-13T01:58:51.139Z,99.46
2023-01-13T02:01:18.336Z,99.46
2023-01-13T02:03:54.160Z,99.05
2023-01-13T02:06:21.043Z,99.28
2023-01-13T02:08:48.041Z,99.69
2023-01-13T02:11:50.828Z,99.94
2023-01-13T02:14:19.147Z,99.48
2023-01-13T02:16:59.562Z,100.00
2023-01-13T02:19:44.081Z,99.01
2023-01-13T02:22:28.822Z,98.42
2023-01-13T02:25:27.592Z,99.03
2023-01-13T02:28:06.755Z,98.92
2023-01-13T02:31:04.717Z,98.32
2023-01-13T02:33:56.379Z,97.75
2023-01-13T02:36:25.689Z,97.33
2023-01-13T02:39:00.962Z,96.06
2023-01-13T02:41:58.924Z,96.38
2023-01-13T02:44:31.930Z,95.64
2023-01-13T02:47:15.264Z,94.93
2023-01-13T02:49:56.196Z,95.20
2023-01-13T02:52:22.958Z,94.79
2023-01-13T02:54:55.910Z,95.18
2023-01-13T02:57:24.983Z,95.32
2023-01-13T02:59:55.436Z,95.23
2023-01-13T03:02:24.274Z,96.17
2023-01-13T03:04:56.647Z,97.06
2023-01-13T03:07:57.084Z,97.57
2023-01-13T03:10:33.378Z,98.71
2023-01-13T03:13:09.041Z,100.00
2023-01-13T03:16:06.352Z,100.00
2023-01-13T03:19:01.840Z,100.00
2023-01-13T03:21:48.727Z,100.00
2023-01-13T03:24:27.510Z,100.00
2023-01-13T03:27:04.437Z,100.00
2023-01-13T03:29:34.787Z,100.00
2023-01-13T03:32:38.954Z,100.00
2023-01-13T03:35:29.172Z,100.00
2023-01-13T03:38:05.691Z,100.00
2023-01-13T03:40:39.378Z,100.00
2023-01-13T03:43:33.137Z,100.00
2023-01-13T03:46:07.387Z,100.00
2023-01-13T03:48:38.570Z,100.00
2023-01-13T03:51:08.754Z,100.00
2023-01-13T03:53:50.691Z,100.00
2023-01-13T03:56:25.573Z,100.00
2023-01-13T03:58:54.130Z,100.00
2023-01-13T04:01:45.685Z,100.00
2023-01-13T04:04:25.106Z,100.00
2023-01-13T04:07:07.542Z,100.00
2023-01-13T04:09:49.731Z,100.00
2023-01-13T04:12:57.130Z,100.00
2023-01-13T04:15:25.098Z,100.00
2023-01-13T04:17:52.115Z,100.00
2023-01-13T04:20:18.935Z,100.00
2023-01-13T04:22:45.723Z,100.00
2023-01-13T04:25:12.520Z,100.00
2023-01-13T04:27:39.229Z,100.00
2023-01-13T04:30:06.893Z,100.00
2023-01-13T04:32:33.670Z,100.00
2023-01-13T04:35:00.420Z,100.00
2023-01-13T04:37:27.175Z,100.00
2023-01-13T04:39:53.869Z,100.00
2023-01-13T04:42:20.563Z,100.00
2023-01-13T04:44:47.259Z,100.00
2023-01-13T04:47:13.972Z,100.00
2023-01-13T04:49:40.756Z,100.00
2023-01-13T04:52:07.496Z,100.00
2023-01-13T04:54:34.253Z,100.00
2023-01-13T04:57:00.994Z,100.00
2023-01-13T04:59:27.722Z,100.00
2023-01-13T05:01:54.566Z,100.00
2023-01-13T05:04:21.373Z,100.00
2023-01-13T05:06:48.071Z,99.17
2023-01-13T05:09:15.829Z,99.49
2023-01-13T05:12:00.839Z,98.78
2023-01-13T05:14:46.183Z,99.07
2023-01-13T05:17:21.227Z,98.98
2023-01-13T05:19:48.120Z,98.52
2023-01-13T05:22:33.771Z,97.78
2023-01-13T05:25:18.908Z,98.52
2023-01-13T05:27:45.778Z,98.91
2023-01-13T05:30:12.833Z,99.06
2023-01-13T05:32:40.099Z,98.90
2023-01-13T05:35:07.060Z,99.25
2023-01-13T05:37:33.852Z,99.80
2023-01-13T05:40:19.124Z,98.96
2023-01-13T05:43:04.386Z,99.48
2023-01-13T05:45:32.157Z,99.40
2023-01-13T05:47:58.910Z,99.75
2023-01-13T05:50:25.654Z,99.91
2023-01-13T05:52:52.392Z,99.39
2023-01-13T05:55:19.108Z,99.35
2023-01-13T05:57:45.817Z,99.47
2023-01-13T06:00:13.002Z,99.26
2023-01-13T06:02:39.784Z,99.32
2023-01-13T06:05:06.837Z,98.87
2023-01-13T06:07:33.543Z,98.66
2023-01-13T06:10:00.267Z,98.92
2023-01-13T06:12:27.193Z,97.70
2023-01-13T06:14:53.922Z,97.28
2023-01-13T06:17:20.765Z,96.85
2023-01-13T06:19:47.494Z,96.67
2023-01-13T06:22:18.582Z,97.09
2023-01-13T06:24:46.303Z,97.11
2023-01-13T06:27:14.762Z,96.96
2023-01-13T06:29:41.644Z,97.24
2023-01-13T06:32:16.461Z,98.06
2023-01-13T06:34:47.599Z,97.43
2023-01-13T06:37:19.946Z,97.15
2023-01-13T06:39:49.092Z,97.73
2023-01-13T06:42:42.837Z,98.13
2023-01-13T06:45:10.430Z,97.92
2023-01-13T06:47:37.371Z,98.57
2023-01-13T06:50:04.810Z,99.07
2023-01-13T06:52:31.559Z,99.05
2023-01-13T06:54:58.322Z,99.42
2023-01-13T06:57:25.335Z,100.00
2023-01-13T06:59:52.109Z,100.00
2023-01-13T07:02:18.959Z,100.00
2023-01-13T07:04:46.805Z,99.42
2023-01-13T07:07:13.938Z,99.71
2023-01-13T07:09:40.682Z,99.22
2023-01-13T07:12:07.799Z,99.91
2023-01-13T07:14:54.022Z,99.81
2023-01-13T07:17:25.354Z,99.98
2023-01-13T07:19:53.211Z,100.00
2023-01-13T07:22:20.027Z,100.00
2023-01-13T07:24:46.782Z,100.00
2023-01-13T07:27:13.533Z,100.00
2023-01-13T07:29:40.320Z,100.00
2023-01-13T07:32:08.061Z,100.00
2023-01-13T07:34:34.969Z,100.00
2023-01-13T07:37:02.084Z,100.00
2023-01-13T07:39:28.808Z,100.00
2023-01-13T07:42:14.361Z,100.00
2023-01-13T07:44:41.088Z,100.00
2023-01-13T07:47:10.476Z,100.00
2023-01-13T07:49:37.423Z,100.00
2023-01-13T07:52:04.399Z,100.00
2023-01-13T07:54:40.149Z,100.00
2023-01-13T07:57:09.128Z,100.00
2023-01-13T07:59:38.900Z,100.00
2023-01-13T08:02:05.781Z,99.41
2023-01-13T08:04:33.790Z,99.04
2023-01-13T08:07:00.418Z,99.34
2023-01-13T08:09:27.166Z,98.11
2023-01-13T08:12:14.608Z,97.38
2023-01-13T08:14:41.650Z,96.90
2023-01-13T08:17:09.943Z,96.19
2023-01-13T08:19:36.702Z,95.52
2023-01-13T08:22:03.535Z,94.07
2023-01-13T08:24:30.281Z,94.59
2023-01-13T08:26:57.097Z,94.32
2023-01-13T08:29:23.842Z,93.33
2023-01-13T08:31:50.562Z,93.26
2023-01-13T08:34:17.316Z,92.85
2023-01-13T08:36:44.036Z,92.92
2023-01-13T08:39:10.801Z,92.79
2023-01-13T08:41:55.641Z,92.48
2023-01-13T08:44:24.231Z,92.53
2023-01-13T08:46:50.947Z,92.00
2023-01-13T08:49:18.274Z,91.60
2023-01-13T08:51:54.277Z,90.60
2023-01-13T08:54:21.105Z,91.56
2023-01-13T08:56:47.968Z,91.43
2023-01-13T08:59:17.831Z,91.85
2023-01-13T09:01:47.418Z,91.80
2023-01-13T09:04:21.932Z,91.87
2023-01-13T09:06:49.665Z,92.17
2023-01-13T09:09:16.606Z,91.71
2023-01-13T09:12:05.495Z,92.52
2023-01-13T09:14:35.081Z,92.39
2023-01-13T09:17:02.035Z,92.94
2023-01-13T09:19:29.865Z,92.25
2023-01-13T09:21:57.489Z,92.20
2023-01-13T09:24:25.416Z,92.18
2023-01-13T09:26:52.049Z,90.87
2023-01-13T09:29:19.486Z,91.08
2023-01-13T09:31:46.370Z,91.33
2023-01-13T09:34:33.983Z,90.67
2023-01-13T09:37:00.663Z,91.18
2023-01-13T09:39:27.459Z,90.92
2023-01-13T09:42:15.784Z,90.98
2023-01-13T09:44:57.970Z,91.28
2023-01-13T09:47:32.154Z,91.00
2023-01-13T09:50:14.372Z,90.84
2023-01-13T09:52:43.182Z,90.69
2023-01-13T09:55:26.963Z,88.83
2023-01-13T09:57:53.662Z,89.17
2023-01-13T10:00:27.706Z,89.44
2023-01-13T10:03:01.780Z,89.05
2023-01-13T10:05:43.103Z,86.42
2023-01-13T10:08:23.336Z,87.47
2023-01-13T10:10:58.309Z,87.16
2023-01-13T10:13:28.594Z,86.03
2023-01-13T10:16:07.913Z,86.19
2023-01-13T10:19:00.801Z,86.01
2023-01-13T10:21:49.409Z,87.45
2023-01-13T10:24:40.099Z,87.47
2023-01-13T10:27:29.874Z,87.57
2023-01-13T10:29:56.652Z,88.63
2023-01-13T10:32:25.863Z,89.25
2023-01-13T10:34:56.699Z,91.08
2023-01-13T10:37:27.830Z,92.08
2023-01-13T10:39:56.517Z,93.64
2023-01-13T10:42:24.627Z,93.50
2023-01-13T10:44:57.114Z,94.22
2023-01-13T10:47:33.083Z,93.88
2023-01-13T10:50:05.945Z,94.56
2023-01-13T10:52:37.628Z,93.28
2023-01-13T10:55:24.117Z,92.81
2023-01-13T10:57:50.893Z,92.63
2023-01-13T11:00:30.404Z,93.08
2023-01-13T11:03:16.529Z,94.81
2023-01-13T11:05:58.460Z,94.33
2023-01-13T11:08:29.033Z,94.84
2023-01-13T11:10:58.990Z,95.45
2023-01-13T11:13:35.493Z,95.43
2023-01-13T11:16:15.592Z,95.37
2023-01-13T11:19:12.176Z,94.76
2023-01-13T11:21:49.857Z,93.28
2023-01-13T11:24:40.128Z,91.70
2023-01-13T11:27:16.007Z,90.58
2023-01-13T11:30:09.887Z,89.69
2023-01-13T11:33:08.836Z,88.10
2023-01-13T11:35:44.426Z,87.64
2023-01-13T11:38:40.309Z,86.17
2023-01-13T11:41:17.371Z,86.16
2023-01-13T11:43:53.872Z,85.70
2023-01-13T11:46:26.131Z,84.88
2023-01-13T11:48:56.275Z,85.11
2023-01-13T11:51:28.781Z,84.71
2023-01-13T11:53:58.221Z,83.79
2023-01-13T11:56:38.856Z,83.58
2023-01-13T11:59:17.869Z,82.60
2023-01-13T12:01:47.839Z,83.97
2023-01-13T12:04:23.583Z,83.72
2023-01-13T12:07:13.622Z,83.15
2023-01-13T12:10:11.014Z,83.19
2023-01-13T12:13:00.976Z,82.57
2023-01-13T12:15:59.496Z,82.33
2023-01-13T12:18:52.296Z,82.48
2023-01-13T12:21:22.647Z,82.65
2023-01-13T12:23:52.231Z,82.26
2023-01-13T12:26:18.982Z,82.66
2023-01-13T12:28:57.032Z,81.63
2023-01-13T12:31:27.742Z,82.10
2023-01-13T12:34:26.968Z,82.46
2023-01-13T12:37:18.091Z,82.89
2023-01-13T12:39:44.806Z,81.81
2023-01-13T12:43:04.112Z,82.88
2023-01-13T12:45:32.991Z,82.97
2023-01-13T12:48:00.653Z,82.37
2023-01-13T12:50:27.361Z,83.23
2023-01-13T12:52:55.912Z,83.87
2023-01-13T12:55:25.383Z,84.14
2023-01-13T12:58:02.781Z,83.77
2023-01-13T13:00:41.557Z,84.81
2023-01-13T13:03:09.968Z,85.37
2023-01-13T13:05:44.716Z,86.04
2023-01-13T13:08:39.309Z,87.72
2023-01-13T13:11:50.238Z,89.91
2023-01-13T13:14:36.851Z,90.10
2023-01-13T13:17:28.152Z,91.99
2023-01-13T13:19:57.628Z,92.20
2023-01-13T13:22:27.314Z,92.65
2023-01-13T13:24:59.855Z,93.71
2023-01-13T13:27:40.857Z,95.78
2023-01-13T13:30:44.543Z,97.13
2023-01-13T13:33:44.527Z,97.76
2023-01-13T13:36:40.787Z,98.13
2023-01-13T13:39:49.066Z,98.65
2023-01-13T13:42:46.146Z,98.33
2023-01-13T13:45:43.028Z,98.43
2023-01-13T13:48:27.664Z,99.63
2023-01-13T13:51:01.867Z,100.00
2023-01-13T13:53:32.992Z,97.95
2023-01-13T13:56:01.916Z,98.97
2023-01-13T13:58:31.424Z,97.87
2023-01-13T14:00:59.815Z,97.64
2023-01-13T14:03:31.457Z,97.55
2023-01-13T14:06:07.501Z,97.33
2023-01-13T14:08:37.223Z,98.19
2023-01-13T14:11:27.797Z,98.05
2023-01-13T14:14:13.653Z,96.08
2023-01-13T14:16:41.321Z,94.65
2023-01-13T14:19:24.834Z,95.20
2023-01-13T14:21:53.006Z,95.03
2023-01-13T14:24:22.459Z,94.27
2023-01-13T14:26:53.217Z,93.62
2023-01-13T14:29:23.760Z,93.16
2023-01-13T14:31:53.088Z,92.98
2023-01-13T14:34:32.497Z,92.65
2023-01-13T14:37:00.675Z,94.02
2023-01-13T14:39:38.659Z,93.14
2023-01-13T14:42:12.835Z,92.23
2023-01-13T14:44:45.563Z,93.57
2023-01-13T14:47:32.245Z,94.02
2023-01-13T14:50:02.451Z,94.66
2023-01-13T14:52:38.323Z,95.28
2023-01-13T14:55:05.130Z,95.94
2023-01-13T14:57:33.729Z,94.38
2023-01-13T15:00:08.110Z,94.29
2023-01-13T15:02:40.872Z,94.62
2023-01-13T15:05:19.507Z,93.75
2023-01-13T15:08:11.021Z,93.71
2023-01-13T15:10:48.339Z,91.62
2023-01-13T15:13:24.083Z,90.53
2023-01-13T15:15:58.029Z,91.00
2023-01-13T15:18:25.293Z,90.75
2023-01-13T15:20:52.055Z,90.76
2023-01-13T15:23:19.617Z,90.51
2023-01-13T15:25:47.121Z,91.68
2023-01-13T15:28:23.049Z,90.35
2023-01-13T15:30:51.298Z,90.65
2023-01-13T15:33:19.167Z,90.09
2023-01-13T15:35:50.838Z,90.27
2023-01-13T15:38:22.396Z,90.32
2023-01-13T15:40:50.610Z,89.60
2023-01-13T15:43:40.973Z,90.03
2023-01-13T15:46:34.743Z,89.60
2023-01-13T15:49:09.745Z,90.06
2023-01-13T15:51:39.998Z,88.38
2023-01-13T15:54:08.691Z,88.29
2023-01-13T15:56:39.368Z,88.60
2023-01-13T15:59:17.684Z,88.45
2023-01-13T16:01:46.013Z,87.91
2023-01-13T16:04:15.661Z,87.99
2023-01-13T16:06:42.788Z,88.43
2023-01-13T16:09:13.420Z,87.14
2023-01-13T16:11:40.230Z,87.17
2023-01-13T16:14:07.147Z,87.70
2023-01-13T16:16:33.911Z,86.65
2023-01-13T16:19:00.718Z,86.59
2023-01-13T16:21:27.487Z,86.30
2023-01-13T16:23:54.281Z,85.50
2023-01-13T16:26:26.719Z,85.92
2023-01-13T16:28:55.858Z,85.60
2023-01-13T16:31:32.103Z,85.58
2023-01-13T16:34:01.280Z,85.76
2023-01-13T16:36:30.210Z,85.70
2023-01-13T16:38:57.512Z,85.88
2023-01-13T16:41:27.434Z,85.53
2023-01-13T16:43:54.467Z,86.42
2023-01-13T16:46:27.301Z,86.32
2023-01-13T16:48:56.547Z,85.46
2023-01-13T16:51:24.637Z,85.95
2023-01-13T16:53:52.039Z,86.04
2023-01-13T16:56:27.265Z,85.94
2023-01-13T16:58:57.364Z,86.02
2023-01-13T17:01:27.096Z,86.07
2023-01-13T17:03:54.576Z,86.23
2023-01-13T17:06:31.855Z,85.62
2023-01-13T17:09:08.363Z,86.48
2023-01-13T17:11:35.138Z,86.40
2023-01-13T17:14:07.303Z,86.68
2023-01-13T17:16:45.887Z,86.18
2023-01-13T17:19:13.017Z,86.29
2023-01-13T17:21:39.738Z,86.38
2023-01-13T17:24:07.991Z,86.59
2023-01-13T17:26:42.116Z,86.34
2023-01-13T17:29:13.726Z,86.24
2023-01-13T17:31:40.581Z,85.84
2023-01-13T17:34:07.330Z,85.82
2023-01-13T17:36:34.052Z,85.79
2023-01-13T17:39:00.937Z,85.92
2023-01-13T17:41:27.946Z,85.97
2023-01-13T17:43:54.887Z,86.49
2023-01-13T17:46:23.118Z,86.37
2023-01-13T17:48:51.341Z,86.12
2023-01-13T17:51:18.891Z,86.34
2023-01-13T17:53:45.724Z,86.42
2023-01-13T17:56:14.490Z,85.77
2023-01-13T17:58:41.690Z,85.22
2023-01-13T18:01:17.789Z,85.50
2023-01-13T18:03:44.991Z,85.62
2023-01-13T18:06:20.335Z,85.54
2023-01-13T18:08:48.277Z,85.22
2023-01-13T18:11:18.809Z,85.84
2023-01-13T18:13:49.654Z,85.41
2023-01-13T18:16:18.597Z,85.52
2023-01-13T18:18:47.346Z,85.77
2023-01-13T18:21:44.455Z,85.92
2023-01-13T18:24:35.545Z,85.68
2023-01-13T18:27:21.445Z,86.04
2023-01-13T18:29:59.088Z,86.38
2023-01-13T18:32:32.665Z,86.30
2023-01-13T18:35:07.057Z,85.86
2023-01-13T18:37:42.280Z,86.24
2023-01-13T18:40:12.030Z,86.41
2023-01-13T18:42:51.552Z,86.42
2023-01-13T18:45:24.398Z,86.27
2023-01-13T18:47:52.059Z,87.00
2023-01-13T18:50:18.943Z,86.61
2023-01-13T18:52:45.874Z,86.88
2023-01-13T18:55:13.026Z,87.14
2023-01-13T18:57:40.444Z,87.39
2023-01-13T19:00:16.808Z,87.43
2023-01-13T19:02:44.878Z,87.36
2023-01-13T19:05:11.727Z,87.51
2023-01-13T19:07:39.121Z,87.97
2023-01-13T19:10:09.535Z,87.51
2023-01-13T19:12:36.588Z,87.75
2023-01-13T19:15:03.740Z,87.92
2023-01-13T19:17:34.542Z,87.63
2023-01-13T19:20:01.294Z,87.56
2023-01-13T19:22:32.793Z,87.09
2023-01-13T19:25:00.996Z,87.02
2023-01-13T19:27:28.793Z,87.07
2023-01-13T19:30:00.672Z,87.60
2023-01-13T19:32:29.005Z,87.10
2023-01-13T19:34:59.257Z,87.45
2023-01-13T19:37:30.459Z,87.37
2023-01-13T19:39:59.309Z,87.95
2023-01-13T19:42:45.190Z,87.39
2023-01-13T19:45:28.522Z,87.62
2023-01-13T19:47:57.121Z,87.75
2023-01-13T19:50:24.665Z,87.70
2023-01-13T19:52:51.530Z,87.99
2023-01-13T19:55:19.779Z,88.02
2023-01-13T19:57:46.532Z,88.34
2023-01-13T20:00:17.060Z,88.44
2023-01-13T20:02:49.126Z,88.77
2023-01-13T20:05:25.982Z,89.51
2023-01-13T20:07:53.267Z,89.62
2023-01-13T20:10:21.402Z,90.22
2023-01-13T20:12:48.327Z,91.10
2023-01-13T20:15:15.078Z,91.98
2023-01-13T20:17:41.991Z,92.48
2023-01-13T20:20:10.669Z,92.51
2023-01-13T20:22:39.295Z,92.90
2023-01-13T20:25:06.713Z,93.13
2023-01-13T20:27:33.496Z,93.18
2023-01-13T20:30:00.279Z,93.45
2023-01-13T20:32:27.039Z,93.68
2023-01-13T20:34:53.751Z,93.83
2023-01-13T20:37:20.612Z,94.07
2023-01-13T20:39:48.214Z,94.05
2023-01-13T20:42:30.383Z,94.49
2023-01-13T20:45:00.155Z,94.99
2023-01-13T20:47:28.405Z,95.18
2023-01-13T20:49:55.220Z,95.54
2023-01-13T20:52:22.129Z,95.63
2023-01-13T20:54:48.861Z,95.89
2023-01-13T20:57:15.689Z,96.19
2023-01-13T20:59:42.483Z,96.86
2023-01-13T21:02:14.576Z,97.23
2023-01-13T21:04:41.830Z,97.08
2023-01-13T21:07:09.197Z,97.29
2023-01-13T21:09:36.596Z,97.41
2023-01-13T21:12:22.644Z,97.27
2023-01-13T21:15:07.863Z,97.52
2023-01-13T21:17:53.091Z,97.50
2023-01-13T21:20:20.135Z,97.36
2023-01-13T21:22:48.393Z,96.87
2023-01-13T21:25:17.203Z,96.69
2023-01-13T21:27:44.146Z,97.13
2023-01-13T21:30:14.942Z,96.86
2023-01-13T21:32:43.373Z,96.87
2023-01-13T21:35:10.666Z,96.98
2023-01-13T21:37:38.328Z,97.16
2023-01-13T21:40:07.869Z,96.65
2023-01-13T21:42:53.300Z,97.13
2023-01-13T21:45:38.602Z,96.73
2023-01-13T21:48:05.603Z,97.06
2023-01-13T21:50:32.355Z,97.36
2023-01-13T21:52:59.205Z,97.12
2023-01-13T21:55:29.364Z,97.43
2023-01-13T21:58:06.834Z,97.32
2023-01-13T22:00:34.161Z,97.30
2023-01-13T22:03:04.361Z,97.73
2023-01-13T22:05:31.528Z,97.80
2023-01-13T22:07:58.460Z,98.15
2023-01-13T22:10:27.414Z,98.00
2023-01-13T22:12:55.760Z,98.15
2023-01-13T22:15:26.926Z,98.03
2023-01-13T22:17:55.131Z,98.17
2023-01-13T22:20:22.796Z,98.37
2023-01-13T22:22:49.732Z,98.36
2023-01-13T22:25:17.528Z,98.50
2023-01-13T22:27:44.999Z,98.35
2023-01-13T22:30:18.218Z,98.49
2023-01-13T22:32:46.168Z,98.05
2023-01-13T22:35:13.800Z,97.98
2023-01-13T22:37:40.721Z,98.36
2023-01-13T22:40:09.914Z,97.83
2023-01-13T22:42:39.712Z,98.16
2023-01-13T22:45:10.274Z,97.83
2023-01-13T22:47:37.188Z,97.60
2023-01-13T22:50:05.177Z,97.90
2023-01-13T22:52:33.792Z,97.47
2023-01-13T22:55:00.943Z,97.76
2023-01-13T22:57:47.820Z,97.65
2023-01-13T23:00:18.975Z,98.03
2023-01-13T23:02:45.899Z,98.09
2023-01-13T23:05:13.783Z,98.62
2023-01-13T23:07:41.104Z,98.50
2023-01-13T23:10:08.484Z,98.98
2023-01-13T23:12:35.213Z,98.76
2023-01-13T23:15:01.959Z,99.12
2023-01-13T23:17:28.697Z,99.56
2023-01-13T23:19:55.424Z,99.83
2023-01-13T23:22:22.166Z,100.00
2023-01-13T23:24:48.974Z,100.00
2023-01-13T23:27:15.707Z,100.00
2023-01-13T23:29:42.446Z,100.00
2023-01-13T23:32:09.166Z,100.00
2023-01-13T23:34:35.929Z,100.00
2023-01-13T23:37:02.679Z,100.00
2023-01-13T23:39:29.402Z,100.00
2023-01-13T23:41:56.156Z,100.00
2023-01-13T23:44:23.008Z,100.00
2023-01-13T23:46:49.795Z,100.00
2023-01-13T23:49:16.681Z,100.00
2023-01-13T23:51:43.580Z,100.00
2023-01-13T23:54:10.468Z,100.00
2023-01-13T23:56:39.587Z,100.00
2023-01-13T23:59:07.330Z,100.00
